createdAt,value
2022-09-13T00:01:11.358Z,100687.47
2022-09-13T00:03:38.319Z,100696.97
2022-09-13T00:06:19.014Z,100689.75
2022-09-13T00:08:47.267Z,100685.69
2022-09-13T00:11:24.172Z,100687.19
2022-09-13T00:13:52.324Z,100685.06
2022-09-13T00:16:24.999Z,100681.78
2022-09-13T00:18:54.226Z,100667.06
2022-09-13T00:21:24.154Z,100664.78
2022-09-13T00:23:54.785Z,100663.16
2022-09-13T00:26:29.005Z,100666.94
2022-09-13T00:28:59.582Z,100666.13
2022-09-13T00:31:29.292Z,100659.41
2022-09-13T00:34:00.321Z,100655.00
2022-09-13T00:36:28.199Z,100641.09
2022-09-13T00:38:55.195Z,100641.41
2022-09-13T00:41:23.010Z,100636.53
2022-09-13T00:44:00.918Z,100619.72
2022-09-13T00:46:49.195Z,100619.59
2022-09-13T00:49:39.775Z,100611.91
2022-09-13T00:52:20.725Z,100604.25
2022-09-13T00:55:03.210Z,100607.34
2022-09-13T00:57:36.566Z,100605.72
2022-09-13T01:00:17.823Z,100604.09
2022-09-13T01:03:00.072Z,100591.69
2022-09-13T01:05:41.376Z,100585.31
2022-09-13T01:08:16.082Z,100578.91
2022-09-13T01:10:45.372Z,100590.88
2022-09-13T01:13:25.088Z,100589.56
2022-09-13T01:15:52.995Z,100586.44
2022-09-13T01:18:21.035Z,100582.88
2022-09-13T01:21:15.712Z,100573.56
2022-09-13T01:24:25.379Z,100577.47
2022-09-13T01:27:48.958Z,100575.19
2022-09-13T01:30:23.742Z,100574.38
2022-09-13T01:33:16.151Z,100580.94
2022-09-13T01:36:44.877Z,100580.94
2022-09-13T01:39:32.720Z,100580.94
2022-09-13T01:42:48.592Z,100578.16
2022-09-13T01:45:54.337Z,100579.19
2022-09-13T01:49:14.704Z,100572.16
2022-09-13T01:52:22.675Z,100570.03
2022-09-13T01:55:30.726Z,100559.28
2022-09-13T01:58:34.695Z,100560.63
2022-09-13T02:01:39.303Z,100560.47
2022-09-13T02:04:27.937Z,100551.31
2022-09-13T02:07:42.219Z,100537.91
2022-09-13T02:10:33.652Z,100538.25
2022-09-13T02:13:13.287Z,100542.19
2022-09-13T02:15:51.990Z,100539.25
2022-09-13T02:18:41.679Z,100519.81
2022-09-13T02:21:26.939Z,100520.94
2022-09-13T02:24:16.225Z,100523.22
2022-09-13T02:26:50.896Z,100525.25
2022-09-13T02:29:25.061Z,100518.88
2022-09-13T02:32:21.755Z,100514.81
2022-09-13T02:35:10.951Z,100509.91
2022-09-13T02:37:45.521Z,100503.88
2022-09-13T02:40:26.159Z,100498.00
2022-09-13T02:43:49.854Z,100486.09
2022-09-13T02:47:12.676Z,100490.81
2022-09-13T02:50:10.293Z,100480.19
2022-09-13T02:52:59.235Z,100489.00
2022-09-13T02:56:04.968Z,100485.06
2022-09-13T02:59:12.184Z,100498.97
2022-09-13T03:01:58.560Z,100489.47
2022-09-13T03:04:28.626Z,100482.16
2022-09-13T03:06:56.004Z,100476.59
2022-09-13T03:09:24.205Z,100472.69
2022-09-13T03:12:34.567Z,100461.22
2022-09-13T03:15:37.565Z,100449.78
2022-09-13T03:19:00.292Z,100443.09
2022-09-13T03:22:35.193Z,100435.91
2022-09-13T03:25:19.852Z,100439.38
2022-09-13T03:28:24.161Z,100427.78
2022-09-13T03:31:07.664Z,100425.84
2022-09-13T03:34:08.897Z,100440.88
2022-09-13T03:37:17.534Z,100432.91
2022-09-13T03:40:07.297Z,100429.75
2022-09-13T03:43:25.705Z,100434.34
2022-09-13T03:46:03.873Z,100438.28
2022-09-13T03:48:37.956Z,100440.75
2022-09-13T03:51:07.220Z,100431.59
2022-09-13T03:53:46.253Z,100437.81
2022-09-13T03:56:22.117Z,100432.25
2022-09-13T03:58:49.824Z,100432.91
2022-09-13T04:01:22.769Z,100422.41
2022-09-13T04:03:55.829Z,100413.25
2022-09-13T04:06:23.899Z,100421.25
2022-09-13T04:08:50.922Z,100414.22
2022-09-13T04:11:18.055Z,100418.97
2022-09-13T04:13:45.029Z,100413.88
2022-09-13T04:16:12.096Z,100406.38
2022-09-13T04:18:39.145Z,100400.00
2022-09-13T04:21:06.271Z,100402.44
2022-09-13T04:23:33.276Z,100393.44
2022-09-13T04:26:06.577Z,100398.31
2022-09-13T04:28:33.650Z,100397.16
2022-09-13T04:31:00.640Z,100398.78
2022-09-13T04:33:27.565Z,100394.19
2022-09-13T04:35:59.518Z,100380.78
2022-09-13T04:38:27.850Z,100387.97
2022-09-13T04:40:56.291Z,100374.91
2022-09-13T04:43:24.769Z,100374.09
2022-09-13T04:45:52.158Z,100375.22
2022-09-13T04:48:19.250Z,100372.44
2022-09-13T04:50:47.642Z,100379.97
2022-09-13T04:53:14.718Z,100375.22
2022-09-13T04:55:41.714Z,100372.59
2022-09-13T04:58:09.167Z,100368.00
2022-09-13T05:00:36.370Z,100372.53
2022-09-13T05:03:03.368Z,100359.09
2022-09-13T05:05:32.376Z,100358.88
2022-09-13T05:07:59.460Z,100357.22
2022-09-13T05:10:26.477Z,100348.47
2022-09-13T05:12:53.529Z,100338.06
2022-09-13T05:15:20.474Z,100341.91
2022-09-13T05:17:47.389Z,100346.13
2022-09-13T05:20:14.328Z,100348.81
2022-09-13T05:22:41.300Z,100348.72
2022-09-13T05:25:09.081Z,100347.09
2022-09-13T05:27:36.006Z,100346.53
2022-09-13T05:30:03.465Z,100336.81
2022-09-13T05:32:32.371Z,100346.34
2022-09-13T05:34:59.324Z,100340.25
2022-09-13T05:37:26.311Z,100344.44
2022-09-13T05:40:11.538Z,100334.09
2022-09-13T05:42:39.392Z,100324.25
2022-09-13T05:45:07.676Z,100324.94
2022-09-13T05:47:34.613Z,100338.16
2022-09-13T05:50:10.403Z,100334.56
2022-09-13T05:52:38.915Z,100312.63
2022-09-13T05:55:06.065Z,100326.22
2022-09-13T05:57:33.003Z,100332.25
2022-09-13T05:59:59.982Z,100332.25
2022-09-13T06:02:26.957Z,100335.25
2022-09-13T06:04:53.942Z,100344.75
2022-09-13T06:07:20.891Z,100349.53
2022-09-13T06:09:48.146Z,100348.72
2022-09-13T06:12:16.991Z,100355.09
2022-09-13T06:14:44.019Z,100353.59
2022-09-13T06:17:11.005Z,100354.50
2022-09-13T06:19:37.962Z,100354.50
2022-09-13T06:22:04.930Z,100363.53
2022-09-13T06:24:32.190Z,100364.47
2022-09-13T06:26:59.095Z,100371.19
2022-09-13T06:29:26.004Z,100378.03
2022-09-13T06:31:52.943Z,100372.94
2022-09-13T06:34:19.937Z,100366.09
2022-09-13T06:36:46.889Z,100369.22
2022-09-13T06:39:13.916Z,100369.22
2022-09-13T06:41:41.058Z,100372.94
2022-09-13T06:44:09.212Z,100375.72
2022-09-13T06:46:37.037Z,100374.34
2022-09-13T06:49:09.036Z,100380.84
2022-09-13T06:51:37.065Z,100368.91
2022-09-13T06:54:04.267Z,100366.72
2022-09-13T06:56:38.728Z,100358.13
2022-09-13T06:59:10.505Z,100350.47
2022-09-13T07:01:44.203Z,100349.75
2022-09-13T07:04:17.393Z,100343.41
2022-09-13T07:06:49.220Z,100342.91
2022-09-13T07:09:21.770Z,100333.97
2022-09-13T07:11:53.911Z,100324.09
2022-09-13T07:14:27.281Z,100331.34
2022-09-13T07:16:55.798Z,100332.38
2022-09-13T07:19:28.434Z,100330.84
2022-09-13T07:21:57.858Z,100330.72
2022-09-13T07:24:25.587Z,100325.34
2022-09-13T07:26:53.439Z,100318.13
2022-09-13T07:29:24.011Z,100330.81
2022-09-13T07:31:55.223Z,100336.69
2022-09-13T07:34:26.351Z,100330.19
2022-09-13T07:36:54.672Z,100323.19
2022-09-13T07:39:23.148Z,100327.63
2022-09-13T07:41:53.813Z,100310.91
2022-09-13T07:44:20.980Z,100313.97
2022-09-13T07:46:48.147Z,100311.31
2022-09-13T07:49:19.979Z,100320.69
2022-09-13T07:51:46.997Z,100320.44
2022-09-13T07:54:18.550Z,100319.38
2022-09-13T07:56:46.564Z,100307.03
2022-09-13T07:59:16.766Z,100311.91
2022-09-13T08:01:49.811Z,100326.59
2022-09-13T08:04:25.822Z,100314.53
2022-09-13T08:06:53.076Z,100326.34
2022-09-13T08:09:20.196Z,100322.28
2022-09-13T08:11:53.213Z,100313.91
2022-09-13T08:14:24.248Z,100325.16
2022-09-13T08:16:56.925Z,100311.75
2022-09-13T08:19:23.892Z,100308.94
2022-09-13T08:21:50.866Z,100309.63
2022-09-13T08:24:21.874Z,100307.03
2022-09-13T08:26:49.367Z,100308.16
2022-09-13T08:29:17.270Z,100305.00
2022-09-13T08:31:45.184Z,100309.25
2022-09-13T08:34:15.916Z,100308.19
2022-09-13T08:36:44.579Z,100312.72
2022-09-13T08:39:16.018Z,100318.63
2022-09-13T08:41:45.210Z,100321.72
2022-09-13T08:44:45.003Z,100321.94
2022-09-13T08:48:07.170Z,100330.25
2022-09-13T08:50:38.600Z,100332.22
2022-09-13T08:53:29.936Z,100332.28
2022-09-13T08:56:12.964Z,100323.16
2022-09-13T08:59:20.310Z,100313.19
2022-09-13T09:02:50.258Z,100316.88
2022-09-13T09:05:29.191Z,100301.19
2022-09-13T09:08:21.346Z,100315.75
2022-09-13T09:10:56.997Z,100305.34
2022-09-13T09:13:37.703Z,100301.94
2022-09-13T09:16:48.353Z,100295.53
2022-09-13T09:19:34.329Z,100295.22
2022-09-13T09:22:22.058Z,100284.25
2022-09-13T09:24:56.708Z,100279.38
2022-09-13T09:27:24.240Z,100288.34
2022-09-13T09:29:59.650Z,100293.72
2022-09-13T09:33:13.756Z,100303.03
2022-09-13T09:36:18.072Z,100302.13
2022-09-13T09:38:45.102Z,100300.72
2022-09-13T09:41:22.787Z,100301.69
2022-09-13T09:44:20.276Z,100289.38
2022-09-13T09:47:29.530Z,100298.59
2022-09-13T09:50:18.036Z,100289.75
2022-09-13T09:53:30.006Z,100294.97
2022-09-13T09:56:21.340Z,100295.84
2022-09-13T09:58:48.779Z,100286.53
2022-09-13T10:01:37.365Z,100282.88
2022-09-13T10:04:10.469Z,100287.38
2022-09-13T10:06:43.925Z,100279.75
2022-09-13T10:09:13.458Z,100280.56
2022-09-13T10:12:00.081Z,100272.59
2022-09-13T10:14:44.540Z,100268.28
2022-09-13T10:17:29.820Z,100271.56
2022-09-13T10:20:24.996Z,100276.03
2022-09-13T10:23:15.392Z,100272.03
2022-09-13T10:26:14.187Z,100261.59
2022-09-13T10:29:07.389Z,100266.41
2022-09-13T10:31:45.296Z,100263.63
2022-09-13T10:34:33.136Z,100266.44
2022-09-13T10:37:33.755Z,100250.34
2022-09-13T10:40:33.659Z,100252.34
2022-09-13T10:43:19.489Z,100249.91
2022-09-13T10:45:51.742Z,100242.22
2022-09-13T10:48:21.522Z,100249.09
2022-09-13T10:51:21.530Z,100245.91
2022-09-13T10:53:49.096Z,100240.66
2022-09-13T10:56:26.729Z,100243.88
2022-09-13T10:59:24.279Z,100245.50
2022-09-13T11:03:05.008Z,100247.53
2022-09-13T11:06:00.208Z,100249.13
2022-09-13T11:08:51.305Z,100248.69
2022-09-13T11:11:52.490Z,100246.66
2022-09-13T11:14:51.152Z,100249.81
2022-09-13T11:18:13.398Z,100245.72
2022-09-13T11:21:12.247Z,100250.41
2022-09-13T11:24:12.485Z,100253.22
2022-09-13T11:27:04.932Z,100257.53
2022-09-13T11:30:29.700Z,100238.59
2022-09-13T11:33:18.289Z,100246.59
2022-09-13T11:36:26.625Z,100252.09
2022-09-13T11:39:43.177Z,100251.88
2022-09-13T11:42:51.194Z,100250.13
2022-09-13T11:45:34.612Z,100253.53
2022-09-13T11:49:12.038Z,100261.47
2022-09-13T11:52:26.528Z,100252.38
2022-09-13T11:55:28.112Z,100242.56
2022-09-13T11:58:13.523Z,100243.72
2022-09-13T12:01:02.685Z,100242.97
2022-09-13T12:04:17.279Z,100248.97
2022-09-13T12:06:59.892Z,100241.03
2022-09-13T12:09:59.454Z,100243.84
2022-09-13T12:12:36.701Z,100239.81
2022-09-13T12:15:37.114Z,100240.75
2022-09-13T12:18:53.557Z,100228.81
2022-09-13T12:21:37.556Z,100230.88
2022-09-13T12:24:28.447Z,100230.13
2022-09-13T12:27:22.028Z,100229.06
2022-09-13T12:30:16.326Z,100228.69
2022-09-13T12:32:48.032Z,100237.94
2022-09-13T12:35:35.225Z,100235.47
2022-09-13T12:38:17.330Z,100233.41
2022-09-13T12:41:35.553Z,100237.78
2022-09-13T12:44:33.805Z,100242.72
2022-09-13T12:47:41.491Z,100241.94
2022-09-13T12:50:44.372Z,100231.13
2022-09-13T12:53:57.328Z,100217.66
2022-09-13T12:57:00.230Z,100224.28
2022-09-13T13:00:30.339Z,100225.91
2022-09-13T13:03:12.017Z,100218.38
2022-09-13T13:05:57.653Z,100222.38
2022-09-13T13:08:31.216Z,100215.16
2022-09-13T13:11:14.662Z,100206.81
2022-09-13T13:14:02.450Z,100205.72
2022-09-13T13:16:31.782Z,100211.41
2022-09-13T13:19:29.668Z,100206.63
2022-09-13T13:22:35.198Z,100205.06
2022-09-13T13:25:39.233Z,100195.00
2022-09-13T13:28:43.331Z,100200.50
2022-09-13T13:31:30.827Z,100195.69
2022-09-13T13:34:08.460Z,100198.53
2022-09-13T13:36:41.293Z,100192.09
2022-09-13T13:39:25.410Z,100193.34
2022-09-13T13:42:03.282Z,100193.28
2022-09-13T13:44:30.123Z,100201.38
2022-09-13T13:47:09.254Z,100188.53
2022-09-13T13:49:39.216Z,100184.56
2022-09-13T13:52:09.245Z,100191.38
2022-09-13T13:54:42.320Z,100199.31
2022-09-13T13:57:31.062Z,100194.50
2022-09-13T14:00:23.537Z,100187.25
2022-09-13T14:02:50.334Z,100187.63
2022-09-13T14:05:54.539Z,100174.06
2022-09-13T14:08:50.255Z,100173.03
2022-09-13T14:12:08.899Z,100179.09
2022-09-13T14:15:27.777Z,100181.09
2022-09-13T14:19:07.540Z,100171.44
2022-09-13T14:21:34.959Z,100171.38
2022-09-13T14:24:25.146Z,100185.13
2022-09-13T14:27:03.977Z,100181.94
2022-09-13T14:29:33.558Z,100182.75
2022-09-13T14:32:16.203Z,100175.91
2022-09-13T14:35:02.953Z,100176.28
2022-09-13T14:37:38.313Z,100167.44
2022-09-13T14:40:28.517Z,100169.47
2022-09-13T14:42:56.604Z,100183.91
2022-09-13T14:45:38.269Z,100182.72
2022-09-13T14:48:25.723Z,100181.50
2022-09-13T14:51:09.468Z,100164.19
2022-09-13T14:53:40.707Z,100166.63
2022-09-13T14:56:27.286Z,100166.22
2022-09-13T14:59:16.112Z,100169.03
2022-09-13T15:01:43.198Z,100173.84
2022-09-13T15:04:10.521Z,100167.03
2022-09-13T15:06:41.288Z,100164.19
2022-09-13T15:09:11.238Z,100164.16
2022-09-13T15:12:01.437Z,100156.47
2022-09-13T15:14:38.148Z,100155.13
2022-09-13T15:17:14.911Z,100152.13
2022-09-13T15:19:50.482Z,100152.69
2022-09-13T15:22:32.039Z,100146.63
2022-09-13T15:25:02.618Z,100149.59
2022-09-13T15:27:47.419Z,100144.84
2022-09-13T15:30:42.111Z,100151.34
2022-09-13T15:33:11.667Z,100147.03
2022-09-13T15:35:46.812Z,100148.38
2022-09-13T15:38:32.440Z,100147.28
2022-09-13T15:41:19.482Z,100145.69
2022-09-13T15:43:49.213Z,100146.41
2022-09-13T15:46:18.540Z,100148.59
2022-09-13T15:49:01.550Z,100147.06
2022-09-13T15:51:28.739Z,100155.66
2022-09-13T15:53:56.614Z,100153.38
2022-09-13T15:56:35.164Z,100149.31
2022-09-13T15:59:02.101Z,100150.13
2022-09-13T16:01:29.257Z,100144.47
2022-09-13T16:03:56.268Z,100153.22
2022-09-13T16:06:24.844Z,100155.25
2022-09-13T16:08:51.864Z,100142.34
2022-09-13T16:11:18.790Z,100148.34
2022-09-13T16:13:45.784Z,100151.56
2022-09-13T16:16:14.891Z,100141.91
2022-09-13T16:18:42.096Z,100137.09
2022-09-13T16:21:09.367Z,100136.22
2022-09-13T16:23:36.684Z,100134.22
2022-09-13T16:26:06.335Z,100128.59
2022-09-13T16:28:33.411Z,100122.13
2022-09-13T16:31:00.501Z,100123.72
2022-09-13T16:33:27.475Z,100123.69
2022-09-13T16:35:57.956Z,100121.66
2022-09-13T16:38:27.187Z,100129.66
2022-09-13T16:40:56.906Z,100117.97
2022-09-13T16:43:23.931Z,100127.09
2022-09-13T16:45:51.556Z,100126.28
2022-09-13T16:48:18.526Z,100120.25
2022-09-13T16:50:45.675Z,100131.84
2022-09-13T16:53:12.637Z,100132.59
2022-09-13T16:55:39.657Z,100125.72
2022-09-13T16:58:06.887Z,100126.94
2022-09-13T17:00:34.222Z,100132.53
2022-09-13T17:03:01.325Z,100129.69
2022-09-13T17:05:28.768Z,100130.06
2022-09-13T17:07:55.797Z,100125.59
2022-09-13T17:10:23.075Z,100132.28
2022-09-13T17:12:50.383Z,100128.19
2022-09-13T17:15:17.548Z,100130.06
2022-09-13T17:17:44.501Z,100126.72
2022-09-13T17:20:13.716Z,100137.06
2022-09-13T17:22:41.243Z,100132.56
2022-09-13T17:25:09.444Z,100134.00
2022-09-13T17:27:36.893Z,100132.53
2022-09-13T17:30:05.670Z,100132.47
2022-09-13T17:32:33.050Z,100141.03
2022-09-13T17:35:00.042Z,100142.53
2022-09-13T17:37:27.243Z,100145.66
2022-09-13T17:39:54.229Z,100142.38
2022-09-13T17:42:23.534Z,100144.31
2022-09-13T17:44:51.083Z,100145.47
2022-09-13T17:47:17.999Z,100149.06
2022-09-13T17:49:46.719Z,100157.78
2022-09-13T17:52:13.825Z,100148.09
2022-09-13T17:54:40.758Z,100145.16
2022-09-13T17:57:08.184Z,100147.78
2022-09-13T17:59:35.118Z,100145.19
2022-09-13T18:02:02.150Z,100153.84
2022-09-13T18:04:29.539Z,100144.09
2022-09-13T18:06:56.651Z,100143.16
2022-09-13T18:09:24.839Z,100154.25
2022-09-13T18:11:51.944Z,100145.28
2022-09-13T18:14:20.262Z,100138.75
2022-09-13T18:16:51.983Z,100142.72
2022-09-13T18:19:29.863Z,100141.84
2022-09-13T18:22:07.901Z,100148.56
2022-09-13T18:24:36.055Z,100147.25
2022-09-13T18:27:03.812Z,100144.38
2022-09-13T18:29:32.892Z,100146.69
2022-09-13T18:32:00.053Z,100141.81
2022-09-13T18:34:27.792Z,100141.66
2022-09-13T18:36:55.325Z,100143.94
2022-09-13T18:39:23.516Z,100147.38
2022-09-13T18:41:50.785Z,100145.78
2022-09-13T18:44:18.744Z,100140.13
2022-09-13T18:46:47.520Z,100143.19
2022-09-13T18:49:15.179Z,100156.28
2022-09-13T18:51:45.434Z,100151.75
2022-09-13T18:54:18.011Z,100158.84
2022-09-13T18:56:47.350Z,100156.78
2022-09-13T18:59:14.738Z,100160.75
2022-09-13T19:01:44.365Z,100162.38
2022-09-13T19:04:19.758Z,100165.09
2022-09-13T19:06:56.073Z,100160.59
2022-09-13T19:09:24.454Z,100153.31
2022-09-13T19:11:54.754Z,100170.97
2022-09-13T19:14:29.095Z,100161.34
2022-09-13T19:17:04.651Z,100164.13
2022-09-13T19:19:31.990Z,100156.22
2022-09-13T19:21:59.070Z,100160.16
2022-09-13T19:24:26.360Z,100166.09
2022-09-13T19:26:53.766Z,100162.06
2022-09-13T19:29:23.474Z,100162.34
2022-09-13T19:31:52.987Z,100163.50
2022-09-13T19:34:22.921Z,100163.81
2022-09-13T19:36:57.556Z,100168.84
2022-09-13T19:39:29.521Z,100167.91
2022-09-13T19:41:58.255Z,100169.34
2022-09-13T19:44:25.469Z,100170.06
2022-09-13T19:47:15.019Z,100170.69
2022-09-13T19:49:40.387Z,100178.19
2022-09-13T19:52:07.709Z,100175.69
2022-09-13T19:54:34.678Z,100175.22
2022-09-13T19:57:03.444Z,100173.06
2022-09-13T19:59:31.610Z,100169.75
2022-09-13T20:01:58.571Z,100170.09
2022-09-13T20:04:26.087Z,100163.63
2022-09-13T20:06:53.139Z,100164.31
2022-09-13T20:09:21.650Z,100172.13
2022-09-13T20:11:49.248Z,100171.22
2022-09-13T20:14:20.460Z,100172.22
2022-09-13T20:16:48.752Z,100178.41
2022-09-13T20:22:09.792Z,100169.94
2022-09-13T20:24:37.350Z,100164.28
2022-09-13T20:27:04.623Z,100172.22
2022-09-13T20:29:31.829Z,100170.56
2022-09-13T20:31:59.973Z,100172.56
2022-09-13T20:34:27.978Z,100163.41
2022-09-13T20:36:54.990Z,100165.72
2022-09-13T20:39:22.073Z,100166.88
2022-09-13T20:41:50.113Z,100165.28
2022-09-13T20:44:17.821Z,100161.69
2022-09-13T20:46:45.135Z,100161.56
2022-09-13T20:49:12.349Z,100164.00
2022-09-13T20:51:39.986Z,100163.75
2022-09-13T20:54:08.360Z,100162.84
2022-09-13T20:56:35.571Z,100159.59
2022-09-13T20:59:04.923Z,100158.78
2022-09-13T21:01:33.851Z,100162.28
2022-09-13T21:04:02.102Z,100158.22
2022-09-13T21:06:37.652Z,100143.84
2022-09-13T21:09:04.850Z,100153.28
2022-09-13T21:11:36.565Z,100148.78
2022-09-13T21:14:08.808Z,100154.25
2022-09-13T21:16:41.322Z,100154.06
2022-09-13T21:19:09.509Z,100153.59
2022-09-13T21:21:41.799Z,100159.41
2022-09-13T21:24:13.775Z,100157.34
2022-09-13T21:26:42.470Z,100155.88
2022-09-13T21:29:11.906Z,100162.97
2022-09-13T21:31:40.409Z,100162.50
2022-09-13T21:34:15.447Z,100166.25
2022-09-13T21:36:46.112Z,100166.97
2022-09-13T21:39:16.371Z,100164.06
2022-09-13T21:41:44.360Z,100177.44
2022-09-13T21:44:11.531Z,100178.00
2022-09-13T21:46:41.084Z,100182.66
2022-09-13T21:49:12.844Z,100187.31
2022-09-13T21:51:47.015Z,100183.97
2022-09-13T21:54:19.132Z,100191.50
2022-09-13T21:56:54.138Z,100191.97
2022-09-13T21:59:23.883Z,100199.13
2022-09-13T22:01:54.434Z,100194.75
2022-09-13T22:04:27.412Z,100195.22
2022-09-13T22:06:55.787Z,100199.94
2022-09-13T22:09:27.662Z,100189.97
2022-09-13T22:11:55.850Z,100192.78
2022-09-13T22:14:23.291Z,100195.44
2022-09-13T22:16:53.051Z,100192.16
2022-09-13T22:19:26.545Z,100187.09
2022-09-13T22:21:59.539Z,100189.97
2022-09-13T22:24:32.315Z,100188.00
2022-09-13T22:27:00.270Z,100187.53
2022-09-13T22:29:28.632Z,100188.47
2022-09-13T22:31:55.995Z,100189.38
2022-09-13T22:34:25.966Z,100195.28
2022-09-13T22:36:56.328Z,100196.00
2022-09-13T22:39:24.040Z,100194.72
2022-09-13T22:41:51.706Z,100201.09
2022-09-13T22:44:18.984Z,100200.03
2022-09-13T22:46:47.615Z,100196.00
2022-09-13T22:49:19.653Z,100199.56
2022-09-13T22:51:48.951Z,100196.34
2022-09-13T22:54:19.412Z,100190.31
2022-09-13T22:56:47.008Z,100193.81
2022-09-13T22:59:21.644Z,100193.22
2022-09-13T23:01:49.334Z,100186.38
2022-09-13T23:04:17.633Z,100193.31
2022-09-13T23:06:47.839Z,100196.47
2022-09-13T23:09:18.702Z,100195.31
2022-09-13T23:11:46.449Z,100196.09
2022-09-13T23:14:17.532Z,100197.63
2022-09-13T23:16:50.508Z,100200.06
2022-09-13T23:19:22.204Z,100198.88
2022-09-13T23:21:49.547Z,100194.50
2022-09-13T23:24:18.984Z,100191.25
2022-09-13T23:26:47.481Z,100194.38
2022-09-13T23:29:20.155Z,100192.06
2022-09-13T23:31:49.018Z,100199.25
2022-09-13T23:34:17.849Z,100196.09
2022-09-13T23:36:46.534Z,100204.34
2022-09-13T23:39:20.058Z,100202.97
2022-09-13T23:41:51.072Z,100201.66
2022-09-13T23:44:19.492Z,100194.59
2022-09-13T23:46:46.612Z,100199.56
2022-09-13T23:49:14.070Z,100197.13
2022-09-13T23:51:41.700Z,100191.94
2022-09-13T23:54:10.280Z,100192.59
2022-09-13T23:56:37.466Z,100190.84
2022-09-13T23:59:06.412Z,100186.00
